createdAt,value
2018-07-27T00:01:23.896Z,21.51
2018-07-27T00:03:54.590Z,21.46
2018-07-27T00:06:27.344Z,21.48
2018-07-27T00:08:59.240Z,21.44
2018-07-27T00:11:30.968Z,21.42
2018-07-27T00:14:03.495Z,21.38
2018-07-27T00:16:35.137Z,21.38
2018-07-27T00:19:06.076Z,21.35
2018-07-27T00:21:38.050Z,21.32
2018-07-27T00:24:08.569Z,21.23
2018-07-27T00:26:39.290Z,21.13
2018-07-27T00:29:10.138Z,21.02
2018-07-27T00:31:41.530Z,21.02
2018-07-27T00:34:13.217Z,21.05
2018-07-27T00:36:44.124Z,21.02
2018-07-27T00:39:15.996Z,20.99
2018-07-27T00:41:53.885Z,21.03
2018-07-27T00:44:25.593Z,20.96
2018-07-27T00:46:59.246Z,20.93
2018-07-27T00:49:37.852Z,20.91
2018-07-27T00:52:11.460Z,20.81
2018-07-27T00:54:43.993Z,20.77
2018-07-27T00:57:14.268Z,20.73
2018-07-27T00:59:45.557Z,20.63
2018-07-27T01:02:19.371Z,20.60
2018-07-27T01:04:50.464Z,20.49
2018-07-27T01:07:24.011Z,20.37
2018-07-27T01:09:54.392Z,20.32
2018-07-27T01:12:24.880Z,20.28
2018-07-27T01:14:57.961Z,20.17
2018-07-27T01:17:29.260Z,20.04
2018-07-27T01:20:01.824Z,20.07
2018-07-27T01:22:32.514Z,20.00
2018-07-27T01:25:03.262Z,19.99
2018-07-27T01:27:35.205Z,20.00
2018-07-27T01:30:10.870Z,20.03
2018-07-27T01:32:40.940Z,20.03
2018-07-27T01:35:11.510Z,19.98
2018-07-27T01:37:42.536Z,19.95
2018-07-27T01:40:14.097Z,19.88
2018-07-27T01:42:46.149Z,19.86
2018-07-27T01:45:18.808Z,19.80
2018-07-27T01:47:52.931Z,19.85
2018-07-27T01:50:24.948Z,19.80
2018-07-27T01:53:00.193Z,19.77
2018-07-27T01:55:31.516Z,19.70
2018-07-27T01:58:03.437Z,19.65
2018-07-27T02:00:37.844Z,19.62
2018-07-27T02:03:08.196Z,19.60
2018-07-27T02:05:43.838Z,19.48
2018-07-27T02:08:16.656Z,19.47
2018-07-27T02:10:47.920Z,19.47
2018-07-27T02:13:19.760Z,19.47
2018-07-27T02:15:49.477Z,19.48
2018-07-27T02:18:18.979Z,19.41
2018-07-27T02:20:50.289Z,19.41
2018-07-27T02:23:22.624Z,19.45
2018-07-27T02:25:54.640Z,19.39
2018-07-27T02:28:23.727Z,19.39
2018-07-27T02:30:53.517Z,19.37
2018-07-27T02:33:24.721Z,19.28
2018-07-27T02:35:55.828Z,19.20
2018-07-27T02:38:26.492Z,19.09
2018-07-27T02:40:59.245Z,19.15
2018-07-27T02:43:34.862Z,19.16
2018-07-27T02:46:09.076Z,19.17
2018-07-27T02:48:40.124Z,19.11
2018-07-27T02:51:15.237Z,19.06
2018-07-27T02:53:47.615Z,19.02
2018-07-27T02:56:23.499Z,18.92
2018-07-27T03:01:37.980Z,18.89
2018-07-27T03:04:19.285Z,18.84
2018-07-27T03:07:00.936Z,18.84
2018-07-27T03:09:47.099Z,18.82
2018-07-27T03:12:23.108Z,18.80
2018-07-27T03:15:03.137Z,18.74
2018-07-27T03:17:36.255Z,18.74
2018-07-27T03:20:18.037Z,18.73
2018-07-27T03:22:51.862Z,18.52
2018-07-27T03:25:25.657Z,18.65
2018-07-27T03:27:56.180Z,18.60
2018-07-27T03:30:28.838Z,18.59
2018-07-27T03:32:59.872Z,18.55
2018-07-27T03:35:29.940Z,18.51
2018-07-27T03:38:01.752Z,18.48
2018-07-27T03:40:35.608Z,18.46
2018-07-27T03:43:07.054Z,18.40
2018-07-27T03:45:43.902Z,18.42
2018-07-27T03:48:14.748Z,18.45
2018-07-27T03:50:44.756Z,18.43
2018-07-27T03:53:14.340Z,18.43
2018-07-27T03:55:44.132Z,18.41
2018-07-27T03:58:13.904Z,18.39
2018-07-27T04:00:43.953Z,18.35
2018-07-27T04:03:13.079Z,18.29
2018-07-27T04:05:43.382Z,18.30
2018-07-27T04:08:12.688Z,18.27
2018-07-27T04:10:42.119Z,18.26
2018-07-27T04:13:11.908Z,18.34
2018-07-27T04:15:42.268Z,18.36
2018-07-27T04:18:12.170Z,18.35
2018-07-27T04:20:43.288Z,18.33
2018-07-27T04:23:12.797Z,18.41
2018-07-27T04:25:44.109Z,18.44
2018-07-27T04:28:13.895Z,18.45
2018-07-27T04:30:43.625Z,18.46
2018-07-27T04:33:14.218Z,18.46
2018-07-27T04:35:43.634Z,18.56
2018-07-27T04:38:14.403Z,18.61
2018-07-27T04:40:43.476Z,18.60
2018-07-27T04:43:13.296Z,18.72
2018-07-27T04:45:44.319Z,18.77
2018-07-27T04:48:14.631Z,18.77
2018-07-27T04:50:48.610Z,18.77
2018-07-27T04:53:17.736Z,18.84
2018-07-27T04:55:49.126Z,18.88
2018-07-27T04:58:18.445Z,18.93
2018-07-27T05:00:49.753Z,19.06
2018-07-27T05:03:21.460Z,19.25
2018-07-27T05:05:52.233Z,19.43
2018-07-27T05:08:24.000Z,19.54
2018-07-27T05:10:56.437Z,19.62
2018-07-27T05:13:26.380Z,19.55
2018-07-27T05:15:56.572Z,19.59
2018-07-27T05:18:30.377Z,19.70
2018-07-27T05:21:00.711Z,19.71
2018-07-27T05:23:37.538Z,20.03
2018-07-27T05:26:07.932Z,20.18
2018-07-27T05:28:37.987Z,20.33
2018-07-27T05:31:08.289Z,20.44
2018-07-27T05:33:41.748Z,20.60
2018-07-27T05:36:15.195Z,20.68
2018-07-27T05:38:45.418Z,20.94
2018-07-27T05:41:19.906Z,21.15
2018-07-27T05:43:50.881Z,21.28
2018-07-27T05:46:22.800Z,21.51
2018-07-27T05:48:54.356Z,21.64
2018-07-27T05:51:24.764Z,21.75
2018-07-27T05:53:54.001Z,21.90
2018-07-27T05:56:26.364Z,22.02
2018-07-27T05:58:57.629Z,22.18
2018-07-27T06:01:30.513Z,22.27
2018-07-27T06:04:01.769Z,22.43
2018-07-27T06:06:41.077Z,22.45
2018-07-27T06:09:12.603Z,22.59
2018-07-27T06:11:47.256Z,22.85
2018-07-27T06:14:22.207Z,23.08
2018-07-27T06:16:56.693Z,23.22
2018-07-27T06:19:29.404Z,23.36
2018-07-27T06:22:04.812Z,23.34
2018-07-27T06:24:55.826Z,23.23
2018-07-27T06:27:26.908Z,23.24
2018-07-27T06:29:59.617Z,23.35
2018-07-27T06:32:29.127Z,23.58
2018-07-27T06:35:03.095Z,23.85
2018-07-27T06:37:36.437Z,24.28
2018-07-27T06:40:08.157Z,24.31
2018-07-27T06:42:40.746Z,24.59
2018-07-27T06:45:12.320Z,25.00
2018-07-27T06:47:42.905Z,25.35
2018-07-27T06:50:17.120Z,25.11
2018-07-27T06:52:48.805Z,25.39
2018-07-27T06:55:20.512Z,25.78
2018-07-27T06:57:50.781Z,25.80
2018-07-27T07:00:21.843Z,26.06
2018-07-27T07:02:52.919Z,26.43
2018-07-27T07:05:25.424Z,26.48
2018-07-27T07:07:57.154Z,26.76
2018-07-27T07:10:31.355Z,26.54
2018-07-27T07:13:02.422Z,26.91
2018-07-27T07:15:33.112Z,26.90
2018-07-27T07:18:06.451Z,27.25
2018-07-27T07:20:36.391Z,27.45
2018-07-27T07:23:07.717Z,27.69
2018-07-27T07:25:39.068Z,27.97
2018-07-27T07:28:09.408Z,28.66
2018-07-27T07:30:45.345Z,29.28
2018-07-27T07:33:14.903Z,30.42
2018-07-27T07:35:46.820Z,31.22
2018-07-27T07:38:16.821Z,32.99
2018-07-27T07:40:50.352Z,32.54
2018-07-27T07:43:21.472Z,33.38
2018-07-27T07:45:51.711Z,34.69
2018-07-27T07:48:22.552Z,32.81
2018-07-27T07:50:52.539Z,31.24
2018-07-27T07:53:24.954Z,32.32
2018-07-27T07:55:56.156Z,33.43
2018-07-27T07:58:27.204Z,36.66
2018-07-27T08:00:57.600Z,38.80
2018-07-27T08:03:29.285Z,38.04
2018-07-27T08:05:59.869Z,40.18
2018-07-27T08:08:30.565Z,41.21
2018-07-27T08:11:02.638Z,40.66
2018-07-27T08:13:35.497Z,41.32
2018-07-27T08:16:07.165Z,41.14
2018-07-27T08:18:39.847Z,38.55
2018-07-27T08:21:10.885Z,40.81
2018-07-27T08:23:44.589Z,42.10
2018-07-27T08:27:00.030Z,37.68
2018-07-27T08:29:34.497Z,36.69
2018-07-27T08:32:04.937Z,39.91
2018-07-27T08:34:34.725Z,41.81
2018-07-27T08:37:06.474Z,40.04
2018-07-27T08:39:40.143Z,39.37
2018-07-27T08:42:09.990Z,41.74
2018-07-27T08:44:41.368Z,41.59
2018-07-27T08:47:11.890Z,43.77
2018-07-27T08:49:42.305Z,43.76
2018-07-27T08:52:13.958Z,43.41
2018-07-27T08:54:45.308Z,44.44
2018-07-27T08:57:20.645Z,41.67
2018-07-27T08:59:52.432Z,39.63
2018-07-27T09:02:22.642Z,40.43
2018-07-27T09:04:53.113Z,40.15
2018-07-27T09:07:23.398Z,42.63
2018-07-27T09:09:54.534Z,43.42
2018-07-27T09:12:27.949Z,44.30
2018-07-27T09:14:58.780Z,46.43
2018-07-27T09:17:31.237Z,47.34
2018-07-27T09:20:01.562Z,45.69
2018-07-27T09:22:33.119Z,45.52
2018-07-27T09:25:04.940Z,46.60
2018-07-27T09:27:34.678Z,44.51
2018-07-27T09:30:04.273Z,42.17
2018-07-27T09:32:35.026Z,43.13
2018-07-27T09:35:12.957Z,42.37
2018-07-27T09:37:43.704Z,40.90
2018-07-27T09:40:20.194Z,43.99
2018-07-27T09:42:52.368Z,43.71
2018-07-27T09:45:21.594Z,40.38
2018-07-27T09:47:51.721Z,40.21
2018-07-27T09:50:23.753Z,40.21
2018-07-27T09:53:00.357Z,42.29
2018-07-27T09:55:31.913Z,42.87
2018-07-27T09:58:01.068Z,42.07
2018-07-27T10:00:46.378Z,42.79
2018-07-27T10:03:20.237Z,45.18
2018-07-27T10:05:50.103Z,44.51
2018-07-27T10:08:19.610Z,45.76
2018-07-27T10:10:49.604Z,44.85
2018-07-27T10:13:20.260Z,45.51
2018-07-27T10:15:52.632Z,43.11
2018-07-27T10:18:23.670Z,42.65
2018-07-27T10:21:01.238Z,41.63
2018-07-27T10:23:34.260Z,41.48
2018-07-27T10:26:07.137Z,43.67
2018-07-27T10:28:40.023Z,43.21
2018-07-27T10:31:10.780Z,42.35
2018-07-27T10:33:44.441Z,41.86
2018-07-27T10:36:19.835Z,40.20
2018-07-27T10:38:50.924Z,42.46
2018-07-27T10:41:23.570Z,43.32
2018-07-27T10:43:56.336Z,40.47
2018-07-27T10:46:25.481Z,42.92
2018-07-27T10:48:59.280Z,41.58
2018-07-27T10:51:30.204Z,40.33
2018-07-27T10:54:06.075Z,41.39
2018-07-27T10:56:36.030Z,42.56
2018-07-27T11:01:44.399Z,42.21
2018-07-27T11:04:15.704Z,38.93
2018-07-27T11:06:45.892Z,38.49
2018-07-27T11:09:16.937Z,38.67
2018-07-27T11:11:48.692Z,38.88
2018-07-27T11:14:18.736Z,40.05
2018-07-27T11:16:52.031Z,40.47
2018-07-27T11:19:21.252Z,42.42
2018-07-27T11:21:51.716Z,40.89
2018-07-27T11:24:24.672Z,40.07
2018-07-27T11:26:54.744Z,38.79
2018-07-27T11:29:28.979Z,40.19
2018-07-27T11:31:58.781Z,39.44
2018-07-27T11:34:28.776Z,39.19
2018-07-27T11:36:58.223Z,41.53
2018-07-27T11:39:27.581Z,42.98
2018-07-27T11:41:58.152Z,43.78
2018-07-27T11:44:27.628Z,42.25
2018-07-27T11:46:59.976Z,41.34
2018-07-27T11:49:31.035Z,41.10
2018-07-27T11:52:07.797Z,40.75
2018-07-27T11:54:42.005Z,40.74
2018-07-27T11:57:13.361Z,39.68
2018-07-27T11:59:47.652Z,38.13
2018-07-27T12:05:12.001Z,39.83
2018-07-27T12:07:49.096Z,41.13
2018-07-27T12:10:35.048Z,41.89
2018-07-27T12:13:14.322Z,40.35
2018-07-27T12:15:53.620Z,37.56
2018-07-27T12:18:24.584Z,39.17
2018-07-27T12:21:00.925Z,39.88
2018-07-27T12:26:24.940Z,39.44
2018-07-27T12:28:56.808Z,40.67
2018-07-27T12:31:32.404Z,41.54
2018-07-27T12:34:10.705Z,42.01
2018-07-27T12:36:43.936Z,42.02
2018-07-27T12:39:19.860Z,41.47
2018-07-27T12:41:51.469Z,40.74
2018-07-27T12:44:24.100Z,41.42
2018-07-27T12:46:59.597Z,42.53
2018-07-27T12:49:31.636Z,42.11
2018-07-27T12:52:02.637Z,42.82
2018-07-27T12:54:36.828Z,42.80
2018-07-27T12:57:05.908Z,40.72
2018-07-27T12:59:35.251Z,40.61
2018-07-27T13:02:04.424Z,40.09
2018-07-27T13:04:33.787Z,37.67
2018-07-27T13:07:02.874Z,37.99
2018-07-27T13:09:32.289Z,39.76
2018-07-27T13:12:01.397Z,40.56
2018-07-27T13:17:00.907Z,43.66
2018-07-27T13:19:30.031Z,44.02
2018-07-27T13:21:59.373Z,41.81
2018-07-27T13:26:59.207Z,41.43
2018-07-27T13:29:29.153Z,41.22
2018-07-27T13:32:00.617Z,40.52
2018-07-27T13:34:38.901Z,40.73
2018-07-27T13:37:09.016Z,41.15
2018-07-27T13:39:39.287Z,41.07
2018-07-27T13:42:11.028Z,42.34
2018-07-27T13:44:40.696Z,42.64
2018-07-27T13:47:11.052Z,41.11
2018-07-27T13:49:41.356Z,39.65
2018-07-27T13:52:12.218Z,39.43
2018-07-27T13:54:43.625Z,40.50
2018-07-27T13:57:14.612Z,40.97
2018-07-27T13:59:44.385Z,40.48
2018-07-27T14:02:19.927Z,38.23
2018-07-27T14:04:55.264Z,40.19
2018-07-27T14:07:29.885Z,40.82
2018-07-27T14:10:06.696Z,39.12
2018-07-27T14:12:40.030Z,38.49
2018-07-27T14:15:10.716Z,38.25
2018-07-27T14:17:40.965Z,38.04
2018-07-27T14:20:16.604Z,38.06
2018-07-27T14:22:46.392Z,39.16
2018-07-27T14:25:18.996Z,39.42
2018-07-27T14:27:50.507Z,39.54
2018-07-27T14:30:23.823Z,39.67
2018-07-27T14:32:57.865Z,40.36
2018-07-27T14:35:28.784Z,39.35
2018-07-27T14:37:59.101Z,39.14
2018-07-27T14:40:29.300Z,38.62
2018-07-27T14:43:00.093Z,37.78
2018-07-27T14:45:29.174Z,38.07
2018-07-27T14:48:04.268Z,38.56
2018-07-27T14:50:37.689Z,39.86
2018-07-27T14:53:12.012Z,39.73
2018-07-27T14:55:41.789Z,39.78
2018-07-27T14:58:12.453Z,39.51
2018-07-27T15:00:44.716Z,40.00
2018-07-27T15:03:17.818Z,39.71
2018-07-27T15:05:47.034Z,39.73
2018-07-27T15:08:18.841Z,39.06
2018-07-27T15:10:49.111Z,38.66
2018-07-27T15:13:20.392Z,39.06
2018-07-27T15:15:52.784Z,39.64
2018-07-27T15:18:32.817Z,39.69
2018-07-27T15:21:05.845Z,39.53
2018-07-27T15:23:37.468Z,39.32
2018-07-27T15:26:07.946Z,39.01
2018-07-27T15:28:42.712Z,38.72
2018-07-27T15:31:12.564Z,38.24
2018-07-27T15:33:44.329Z,38.23
2018-07-27T15:36:15.655Z,36.86
2018-07-27T15:38:48.704Z,36.73
2018-07-27T15:41:19.130Z,36.58
2018-07-27T15:43:52.777Z,36.65
2018-07-27T15:46:24.581Z,36.49
2018-07-27T15:49:08.976Z,36.36
2018-07-27T15:51:43.212Z,36.27
2018-07-27T15:54:14.692Z,36.00
2018-07-27T15:56:45.725Z,35.64
2018-07-27T15:59:15.927Z,35.77
2018-07-27T16:01:50.290Z,35.96
2018-07-27T16:04:19.547Z,36.02
2018-07-27T16:06:51.437Z,36.17
2018-07-27T16:09:21.916Z,35.68
2018-07-27T16:11:52.785Z,35.28
2018-07-27T16:14:24.360Z,35.52
2018-07-27T16:16:57.969Z,34.88
2018-07-27T16:19:33.336Z,35.26
2018-07-27T16:22:07.161Z,35.22
2018-07-27T16:24:38.830Z,34.46
2018-07-27T16:27:15.254Z,33.92
2018-07-27T16:29:49.412Z,34.16
2018-07-27T16:32:24.574Z,34.38
2018-07-27T16:34:55.493Z,34.67
2018-07-27T16:37:27.173Z,34.91
2018-07-27T16:40:01.669Z,34.96
2018-07-27T16:42:34.400Z,34.88
2018-07-27T16:45:15.121Z,34.69
2018-07-27T16:47:50.674Z,35.00
2018-07-27T16:50:22.557Z,34.58
2018-07-27T16:52:53.071Z,34.69
2018-07-27T16:55:24.410Z,34.71
2018-07-27T16:57:58.260Z,34.44
2018-07-27T17:00:28.341Z,34.36
2018-07-27T17:03:01.034Z,34.40
2018-07-27T17:05:31.864Z,34.47
2018-07-27T17:08:02.896Z,34.23
2018-07-27T17:10:32.028Z,34.17
2018-07-27T17:13:02.380Z,34.06
2018-07-27T17:15:32.041Z,33.75
2018-07-27T17:18:01.455Z,33.84
2018-07-27T17:20:31.066Z,33.75
2018-07-27T17:23:00.216Z,33.59
2018-07-27T17:25:34.788Z,33.49
2018-07-27T17:28:06.154Z,33.50
2018-07-27T17:30:37.859Z,33.48
2018-07-27T17:33:11.427Z,33.31
2018-07-27T17:35:42.323Z,33.14
2018-07-27T17:38:17.341Z,32.98
2018-07-27T17:40:47.620Z,32.93
2018-07-27T17:43:17.754Z,32.86
2018-07-27T17:45:50.291Z,32.79
2018-07-27T17:48:19.801Z,32.65
2018-07-27T17:50:51.126Z,32.48
2018-07-27T17:53:24.421Z,32.36
2018-07-27T17:55:57.502Z,32.14
2018-07-27T17:58:28.232Z,31.97
2018-07-27T18:01:00.101Z,31.81
2018-07-27T18:03:30.513Z,31.67
2018-07-27T18:06:04.121Z,31.59
2018-07-27T18:08:38.158Z,31.54
2018-07-27T18:11:09.928Z,31.33
2018-07-27T18:13:42.088Z,31.09
2018-07-27T18:16:14.996Z,31.00
2018-07-27T18:18:44.852Z,30.75
2018-07-27T18:21:20.532Z,30.48
2018-07-27T18:23:50.233Z,30.36
2018-07-27T18:26:22.385Z,30.22
2018-07-27T18:28:53.528Z,30.13
2018-07-27T18:31:26.210Z,30.07
2018-07-27T18:33:58.062Z,29.93
2018-07-27T18:36:29.112Z,29.83
2018-07-27T18:39:00.921Z,29.66
2018-07-27T18:41:33.880Z,29.53
2018-07-27T18:44:06.229Z,29.37
2018-07-27T18:46:42.060Z,29.29
2018-07-27T18:49:14.264Z,29.09
2018-07-27T18:51:45.641Z,28.96
2018-07-27T18:54:19.969Z,28.94
2018-07-27T18:56:55.783Z,28.75
2018-07-27T18:59:25.173Z,28.59
2018-07-27T19:02:00.211Z,28.48
2018-07-27T19:04:29.308Z,28.34
2018-07-27T19:06:58.922Z,28.24
2018-07-27T19:09:28.757Z,28.05
2018-07-27T19:11:59.265Z,27.91
2018-07-27T19:14:29.585Z,27.78
2018-07-27T19:17:02.892Z,27.64
2018-07-27T19:19:33.380Z,27.55
2018-07-27T19:22:05.433Z,27.50
2018-07-27T19:24:35.075Z,27.45
2018-07-27T19:27:06.004Z,27.37
2018-07-27T19:29:41.052Z,27.32
2018-07-27T19:32:21.062Z,27.14
2018-07-27T19:34:53.652Z,27.07
2018-07-27T19:37:25.404Z,26.91
2018-07-27T19:40:01.097Z,26.83
2018-07-27T19:42:33.749Z,26.72
2018-07-27T19:45:07.990Z,26.68
2018-07-27T19:47:39.464Z,26.54
2018-07-27T19:50:10.537Z,26.38
2018-07-27T19:52:44.312Z,26.35
2018-07-27T19:55:14.264Z,26.05
2018-07-27T19:57:45.857Z,25.99
2018-07-27T20:00:15.340Z,25.99
2018-07-27T20:02:45.757Z,26.04
2018-07-27T20:05:15.092Z,26.00
2018-07-27T20:07:46.157Z,25.94
2018-07-27T20:10:16.636Z,25.92
2018-07-27T20:12:47.033Z,25.83
2018-07-27T20:15:16.721Z,25.73
2018-07-27T20:17:46.856Z,25.62
2018-07-27T20:20:18.704Z,25.49
2018-07-27T20:22:47.628Z,25.39
2018-07-27T20:25:18.096Z,25.32
2018-07-27T20:27:47.456Z,25.27
2018-07-27T20:30:20.255Z,25.33
2018-07-27T20:32:50.324Z,25.39
2018-07-27T20:35:23.744Z,25.23
2018-07-27T20:37:56.144Z,25.18
2018-07-27T20:40:27.131Z,25.06
2018-07-27T20:42:57.088Z,24.93
2018-07-27T20:45:28.946Z,24.86
2018-07-27T20:47:58.348Z,24.78
2018-07-27T20:50:29.000Z,24.69
2018-07-27T20:53:00.589Z,24.60
2018-07-27T20:55:30.129Z,24.64
2018-07-27T20:58:03.218Z,24.61
2018-07-27T21:00:36.380Z,24.57
2018-07-27T21:03:08.235Z,24.52
2018-07-27T21:05:43.532Z,24.38
2018-07-27T21:08:23.375Z,24.31
2018-07-27T21:16:35.025Z,23.88
2018-07-27T21:19:15.375Z,23.89
2018-07-27T21:21:57.564Z,23.75
2018-07-27T21:24:34.236Z,23.65
2018-07-27T21:27:09.645Z,23.57
2018-07-27T21:29:48.707Z,23.43
2018-07-27T21:32:26.435Z,23.41
2018-07-27T21:35:08.209Z,23.40
2018-07-27T21:37:47.428Z,23.47
2018-07-27T21:40:21.848Z,23.47
2018-07-27T21:42:57.710Z,23.45
2018-07-27T21:45:29.157Z,23.40
2018-07-27T21:48:01.872Z,23.35
2018-07-27T21:50:35.736Z,23.25
2018-07-27T21:53:08.843Z,23.13
2018-07-27T21:55:38.405Z,23.10
2018-07-27T21:58:10.103Z,22.86
2018-07-27T22:00:39.937Z,22.91
2018-07-27T22:03:09.017Z,22.91
2018-07-27T22:05:39.292Z,22.89
2018-07-27T22:08:14.288Z,22.84
2018-07-27T22:10:45.576Z,22.59
2018-07-27T22:13:14.753Z,22.56
2018-07-27T22:15:43.876Z,22.62
2018-07-27T22:18:13.465Z,22.69
2018-07-27T22:20:42.584Z,22.55
2018-07-27T22:23:12.212Z,22.06
2018-07-27T22:25:41.331Z,22.12
2018-07-27T22:28:10.513Z,22.22
2018-07-27T22:30:41.011Z,22.23
2018-07-27T22:33:10.131Z,22.36
2018-07-27T22:35:39.292Z,22.13
2018-07-27T22:38:09.875Z,21.84
2018-07-27T22:40:39.110Z,22.06
2018-07-27T22:43:09.385Z,22.06
2018-07-27T22:45:39.176Z,22.11
2018-07-27T22:48:08.988Z,22.16
2018-07-27T22:50:38.732Z,22.14
2018-07-27T22:53:07.896Z,22.24
2018-07-27T22:55:38.140Z,22.26
2018-07-27T22:58:08.582Z,22.28
2018-07-27T23:00:39.599Z,22.23
2018-07-27T23:03:08.917Z,22.22
2018-07-27T23:05:45.057Z,22.19
2018-07-27T23:08:16.018Z,22.12
2018-07-27T23:10:45.238Z,22.04
2018-07-27T23:13:18.820Z,21.99
2018-07-27T23:15:49.149Z,21.91
2018-07-27T23:18:19.181Z,21.88
2018-07-27T23:20:49.484Z,21.91
2018-07-27T23:23:19.924Z,21.85
2018-07-27T23:25:49.408Z,21.76
2018-07-27T23:28:20.456Z,21.80
2018-07-27T23:30:51.064Z,21.82
2018-07-27T23:33:21.054Z,21.78
2018-07-27T23:35:51.549Z,21.81
2018-07-27T23:38:22.786Z,21.78
2018-07-27T23:40:53.220Z,21.82
2018-07-27T23:43:23.531Z,21.82
2018-07-27T23:45:56.609Z,21.75
2018-07-27T23:48:26.804Z,21.71
2018-07-27T23:51:00.083Z,21.67
2018-07-27T23:53:29.996Z,21.58
2018-07-27T23:56:00.356Z,21.59
2018-07-27T23:58:31.921Z,21.49
